createdAt,value
2022-11-16T00:00:31.423Z,8.60
2022-11-16T00:03:03.876Z,5.47
2022-11-16T00:05:31.873Z,10.00
2022-11-16T00:08:00.233Z,9.07
2022-11-16T00:10:31.031Z,9.85
2022-11-16T00:12:58.883Z,9.82
2022-11-16T00:15:27.237Z,8.73
2022-11-16T00:17:55.286Z,8.50
2022-11-16T00:20:23.200Z,9.48
2022-11-16T00:22:51.409Z,7.68
2022-11-16T00:25:19.650Z,10.40
2022-11-16T00:27:50.161Z,9.27
2022-11-16T00:30:18.462Z,7.93
2022-11-16T00:32:46.359Z,9.48
2022-11-16T00:35:14.253Z,5.68
2022-11-16T00:37:43.342Z,6.62
2022-11-16T00:40:12.172Z,8.32
2022-11-16T00:42:40.504Z,4.93
2022-11-16T00:45:09.616Z,9.38
2022-11-16T00:47:40.508Z,10.88
2022-11-16T00:50:11.604Z,7.07
2022-11-16T00:52:39.697Z,11.80
2022-11-16T00:55:10.040Z,10.48
2022-11-16T00:57:38.402Z,9.23
2022-11-16T01:00:06.829Z,7.37
2022-11-16T01:02:35.378Z,11.45
2022-11-16T01:05:07.279Z,10.20
2022-11-16T01:07:36.915Z,12.85
2022-11-16T01:10:08.580Z,9.35
2022-11-16T01:12:36.939Z,11.40
2022-11-16T01:15:09.441Z,9.27
2022-11-16T01:17:39.728Z,10.07
2022-11-16T01:20:12.471Z,9.45
2022-11-16T01:22:41.683Z,8.52
2022-11-16T01:25:11.937Z,7.00
2022-11-16T01:27:41.320Z,6.80
2022-11-16T01:30:12.729Z,8.15
2022-11-16T01:32:42.849Z,9.48
2022-11-16T01:35:16.872Z,8.73
2022-11-16T01:37:47.926Z,12.65
2022-11-16T01:40:16.667Z,8.57
2022-11-16T01:42:48.082Z,5.78
2022-11-16T01:45:29.108Z,8.27
2022-11-16T01:47:57.600Z,6.62
2022-11-16T01:50:26.807Z,7.90
2022-11-16T01:53:00.420Z,8.85
2022-11-16T01:55:32.528Z,4.07
2022-11-16T01:58:03.217Z,5.57
2022-11-16T02:00:32.655Z,8.07
2022-11-16T02:03:01.419Z,9.55
2022-11-16T02:06:27.083Z,7.32
2022-11-16T02:09:32.742Z,5.87
2022-11-16T02:12:13.228Z,5.60
2022-11-16T02:15:11.341Z,11.32
2022-11-16T02:17:48.874Z,9.00
2022-11-16T02:20:51.932Z,7.45
2022-11-16T02:24:00.623Z,10.30
2022-11-16T02:26:49.951Z,11.95
2022-11-16T02:29:28.393Z,7.47
2022-11-16T02:32:01.676Z,7.78
2022-11-16T02:34:45.807Z,9.77
2022-11-16T02:37:19.891Z,11.75
2022-11-16T02:39:58.011Z,12.57
2022-11-16T02:42:51.465Z,8.57
2022-11-16T02:45:27.503Z,11.43
2022-11-16T02:48:05.028Z,7.32
2022-11-16T02:50:35.801Z,6.72
2022-11-16T02:53:04.509Z,11.15
2022-11-16T02:55:34.967Z,9.82
2022-11-16T02:58:06.596Z,7.40
2022-11-16T03:00:52.981Z,7.22
2022-11-16T03:03:49.961Z,7.70
2022-11-16T03:06:22.733Z,9.15
2022-11-16T03:09:08.965Z,10.18
2022-11-16T03:11:59.635Z,11.93
2022-11-16T03:14:32.410Z,11.25
2022-11-16T03:17:05.336Z,8.85
2022-11-16T03:19:48.408Z,8.88
2022-11-16T03:22:28.603Z,10.43
2022-11-16T03:24:57.108Z,8.77
2022-11-16T03:28:02.574Z,8.40
2022-11-16T03:30:36.635Z,12.82
2022-11-16T03:33:22.430Z,10.73
2022-11-16T03:36:36.421Z,9.40
2022-11-16T03:39:12.996Z,10.55
2022-11-16T03:41:44.486Z,17.08
2022-11-16T03:44:14.947Z,9.60
2022-11-16T03:46:44.863Z,7.87
2022-11-16T03:49:13.494Z,8.70
2022-11-16T03:51:42.055Z,8.52
2022-11-16T03:54:13.549Z,8.90
2022-11-16T03:56:41.524Z,8.98
2022-11-16T03:59:09.589Z,10.35
2022-11-16T04:01:44.733Z,9.82
2022-11-16T04:04:34.621Z,8.98
2022-11-16T04:07:23.329Z,8.82
2022-11-16T04:10:10.322Z,7.15
2022-11-16T04:13:03.058Z,11.32
2022-11-16T04:15:49.772Z,5.60
2022-11-16T04:18:39.634Z,9.13
2022-11-16T04:21:49.106Z,10.13
2022-11-16T04:24:22.262Z,13.45
2022-11-16T04:27:13.392Z,12.20
2022-11-16T04:29:42.286Z,8.90
2022-11-16T04:32:30.005Z,10.90
2022-11-16T04:35:17.600Z,8.65
2022-11-16T04:37:55.180Z,7.57
2022-11-16T04:40:26.609Z,8.15
2022-11-16T04:42:57.693Z,10.93
2022-11-16T04:45:46.518Z,9.82
2022-11-16T04:48:17.828Z,11.68
2022-11-16T04:50:47.368Z,12.55
2022-11-16T04:53:17.096Z,10.55
2022-11-16T04:55:45.208Z,8.63
2022-11-16T04:58:16.497Z,6.85
2022-11-16T05:00:47.948Z,9.80
2022-11-16T05:03:19.058Z,11.93
2022-11-16T05:05:49.605Z,7.00
2022-11-16T05:08:17.771Z,14.07
2022-11-16T05:10:46.047Z,8.48
2022-11-16T05:13:14.339Z,9.23
2022-11-16T05:15:46.348Z,8.95
2022-11-16T05:18:14.759Z,8.00
2022-11-16T05:21:03.471Z,5.90
2022-11-16T05:23:51.799Z,7.57
2022-11-16T05:26:20.421Z,9.02
2022-11-16T05:28:48.919Z,7.25
2022-11-16T05:31:16.813Z,5.20
2022-11-16T05:33:45.405Z,4.37
2022-11-16T05:36:13.958Z,10.88
2022-11-16T05:38:41.795Z,6.22
2022-11-16T05:41:09.710Z,4.95
2022-11-16T05:43:38.587Z,5.68
2022-11-16T05:46:06.662Z,6.87
2022-11-16T05:48:34.845Z,4.95
2022-11-16T05:51:04.794Z,6.87
2022-11-16T05:53:33.404Z,6.95
2022-11-16T05:56:01.712Z,5.18
2022-11-16T05:58:31.640Z,6.75
2022-11-16T06:01:00.020Z,5.72
2022-11-16T06:03:31.906Z,5.32
2022-11-16T06:06:00.338Z,5.05
2022-11-16T06:08:29.047Z,6.70
2022-11-16T06:10:57.476Z,7.32
2022-11-16T06:13:25.404Z,6.70
2022-11-16T06:15:55.308Z,5.10
2022-11-16T06:18:23.677Z,5.30
2022-11-16T06:20:51.660Z,6.93
2022-11-16T06:23:21.544Z,9.00
2022-11-16T06:25:56.116Z,7.65
2022-11-16T06:28:25.145Z,6.32
2022-11-16T06:30:53.399Z,4.62
2022-11-16T06:33:21.817Z,6.28
2022-11-16T06:35:50.415Z,5.78
2022-11-16T06:38:19.743Z,7.18
2022-11-16T06:40:53.025Z,6.00
2022-11-16T06:43:26.024Z,6.87
2022-11-16T06:45:58.912Z,6.47
2022-11-16T06:48:27.283Z,6.12
2022-11-16T06:50:55.343Z,6.55
2022-11-16T06:53:28.736Z,5.32
2022-11-16T06:56:03.805Z,6.37
2022-11-16T06:58:33.880Z,8.27
2022-11-16T07:01:09.060Z,5.55
2022-11-16T07:03:40.600Z,7.93
2022-11-16T07:06:11.095Z,5.60
2022-11-16T07:08:40.336Z,3.40
2022-11-16T07:11:10.406Z,7.65
2022-11-16T07:13:39.045Z,8.25
2022-11-16T07:16:12.432Z,10.13
2022-11-16T07:18:42.416Z,6.53
2022-11-16T07:21:13.666Z,3.97
2022-11-16T07:23:43.347Z,8.65
2022-11-16T07:26:12.337Z,5.87
2022-11-16T07:28:45.024Z,3.42
2022-11-16T07:31:17.484Z,8.65
2022-11-16T07:33:45.555Z,6.68
2022-11-16T07:36:18.477Z,6.12
2022-11-16T07:38:46.650Z,7.10
2022-11-16T07:41:18.155Z,5.05
2022-11-16T07:49:16.342Z,7.95
2022-11-16T07:51:47.911Z,6.82
2022-11-16T07:54:17.890Z,4.57
2022-11-16T07:56:45.560Z,5.90
2022-11-16T07:59:13.460Z,5.00
2022-11-16T08:01:42.141Z,8.38
2022-11-16T08:04:11.129Z,5.20
2022-11-16T08:06:39.496Z,5.07
2022-11-16T08:09:07.374Z,4.70
2022-11-16T08:11:39.053Z,6.28
2022-11-16T08:14:12.025Z,6.37
2022-11-16T08:16:49.617Z,8.10
2022-11-16T08:19:18.457Z,5.35
2022-11-16T08:21:51.752Z,6.40
2022-11-16T08:24:32.295Z,5.45
2022-11-16T08:27:01.170Z,7.70
2022-11-16T08:29:31.365Z,5.87
2022-11-16T08:31:59.538Z,8.95
2022-11-16T08:34:28.306Z,7.07
2022-11-16T08:37:00.016Z,5.25
2022-11-16T08:39:32.289Z,4.18
2022-11-16T08:42:04.071Z,7.37
2022-11-16T08:44:32.528Z,7.00
2022-11-16T08:47:01.148Z,4.80
2022-11-16T08:49:30.254Z,7.32
2022-11-16T08:51:58.826Z,6.53
2022-11-16T08:54:29.400Z,5.65
2022-11-16T08:56:57.520Z,5.05
2022-11-16T08:59:25.962Z,5.30
2022-11-16T09:01:55.426Z,3.70
2022-11-16T09:04:23.692Z,5.43
2022-11-16T09:06:53.286Z,6.82
2022-11-16T09:09:21.309Z,5.43
2022-11-16T09:11:55.840Z,5.07
2022-11-16T09:14:24.173Z,4.78
2022-11-16T09:16:52.556Z,4.40
2022-11-16T09:19:21.245Z,5.35
2022-11-16T09:21:50.390Z,4.93
2022-11-16T09:24:18.186Z,5.57
2022-11-16T09:26:46.222Z,4.15
2022-11-16T09:29:15.614Z,4.78
2022-11-16T09:31:44.078Z,4.85
2022-11-16T09:34:11.841Z,7.72
2022-11-16T09:36:40.219Z,8.23
2022-11-16T09:39:29.585Z,10.82
2022-11-16T09:42:41.433Z,3.85
2022-11-16T09:45:48.420Z,6.20
2022-11-16T09:48:18.859Z,5.90
2022-11-16T09:51:08.716Z,4.60
2022-11-16T09:54:02.243Z,2.75
2022-11-16T09:56:33.665Z,3.35
2022-11-16T09:59:04.778Z,6.43
2022-11-16T10:01:47.099Z,5.70
2022-11-16T10:04:25.082Z,5.05
2022-11-16T10:07:11.611Z,3.55
2022-11-16T10:09:40.006Z,3.30
2022-11-16T10:12:44.028Z,5.85
2022-11-16T10:15:33.928Z,4.57
2022-11-16T10:18:24.706Z,4.65
2022-11-16T10:21:04.135Z,5.00
2022-11-16T10:23:38.104Z,5.20
2022-11-16T10:26:25.391Z,7.78
2022-11-16T10:29:27.721Z,7.12
2022-11-16T10:32:14.013Z,5.57
2022-11-16T10:35:05.777Z,4.18
2022-11-16T10:37:37.818Z,7.85
2022-11-16T10:40:37.449Z,5.75
2022-11-16T10:43:21.415Z,3.67
2022-11-16T10:46:27.084Z,3.53
2022-11-16T10:49:43.098Z,6.28
2022-11-16T10:52:10.970Z,3.45
2022-11-16T10:54:44.054Z,4.57
2022-11-16T10:57:15.634Z,8.38
2022-11-16T10:59:56.146Z,4.60
2022-11-16T11:02:28.962Z,3.75
2022-11-16T11:05:15.054Z,4.78
2022-11-16T11:07:52.072Z,4.00
2022-11-16T11:10:37.434Z,7.72
2022-11-16T11:13:11.164Z,4.30
2022-11-16T11:15:41.080Z,6.47
2022-11-16T11:18:24.321Z,3.92
2022-11-16T11:21:12.807Z,3.70
2022-11-16T11:23:51.045Z,3.78
2022-11-16T11:26:37.135Z,4.30
2022-11-16T11:29:29.518Z,3.60
2022-11-16T11:32:07.573Z,4.70
2022-11-16T11:34:48.355Z,5.10
2022-11-16T11:37:32.747Z,4.37
2022-11-16T11:40:21.740Z,5.32
2022-11-16T11:42:58.100Z,4.55
2022-11-16T11:45:33.316Z,4.35
2022-11-16T11:48:16.900Z,4.32
2022-11-16T11:53:42.402Z,5.43
2022-11-16T11:56:15.033Z,5.32
2022-11-16T12:01:29.742Z,5.93
2022-11-16T12:04:12.918Z,7.25
2022-11-16T12:07:02.513Z,4.53
2022-11-16T12:09:33.696Z,5.72
2022-11-16T12:12:29.234Z,5.68
2022-11-16T12:15:08.078Z,5.65
2022-11-16T12:18:07.581Z,7.82
2022-11-16T12:20:56.801Z,8.25
2022-11-16T12:23:48.614Z,6.57
2022-11-16T12:26:50.075Z,7.68
2022-11-16T12:29:51.273Z,6.03
2022-11-16T12:32:43.983Z,4.62
2022-11-16T12:35:11.618Z,8.63
2022-11-16T12:38:01.383Z,7.43
2022-11-16T12:40:32.454Z,6.95
2022-11-16T12:43:09.685Z,6.30
2022-11-16T12:45:40.388Z,8.63
2022-11-16T12:48:14.544Z,6.03
2022-11-16T12:50:48.874Z,8.25
2022-11-16T12:53:23.391Z,8.25
2022-11-16T12:56:15.548Z,6.90
2022-11-16T12:59:17.217Z,6.20
2022-11-16T13:02:04.078Z,5.90
2022-11-16T13:04:47.583Z,6.32
2022-11-16T13:07:45.811Z,6.22
2022-11-16T13:10:17.836Z,5.22
2022-11-16T13:12:55.798Z,4.50
2022-11-16T13:15:39.954Z,6.80
2022-11-16T13:18:15.359Z,7.37
2022-11-16T13:20:56.442Z,5.28
2022-11-16T13:23:33.753Z,5.55
2022-11-16T13:26:02.181Z,6.78
2022-11-16T13:28:41.095Z,3.90
2022-11-16T13:31:18.854Z,7.22
2022-11-16T13:33:51.277Z,2.22
2022-11-16T13:36:43.909Z,5.72
2022-11-16T13:39:41.712Z,7.47
2022-11-16T13:42:17.201Z,5.50
2022-11-16T13:44:51.550Z,7.65
2022-11-16T13:47:30.716Z,10.32
2022-11-16T13:50:01.908Z,6.22
2022-11-16T13:55:48.841Z,8.73
2022-11-16T13:58:25.335Z,8.23
2022-11-16T14:00:58.258Z,8.80
2022-11-16T14:03:33.221Z,9.75
2022-11-16T14:06:01.170Z,9.35
2022-11-16T14:08:38.633Z,7.97
2022-11-16T14:11:34.236Z,10.77
2022-11-16T14:14:10.620Z,16.52
2022-11-16T14:16:49.641Z,9.07
2022-11-16T14:19:49.485Z,8.77
2022-11-16T14:22:34.573Z,12.23
2022-11-16T14:25:14.836Z,12.32
2022-11-16T14:27:57.688Z,7.78
2022-11-16T14:33:03.935Z,8.13
2022-11-16T14:35:40.080Z,8.00
2022-11-16T14:38:29.379Z,8.25
2022-11-16T14:40:59.900Z,11.30
2022-11-16T14:43:36.406Z,7.78
2022-11-16T14:46:17.643Z,7.53
2022-11-16T14:48:46.632Z,8.85
2022-11-16T14:51:22.135Z,5.85
2022-11-16T14:53:56.008Z,7.47
2022-11-16T14:56:24.260Z,7.47
2022-11-16T14:59:00.649Z,6.03
2022-11-16T15:01:31.422Z,7.78
2022-11-16T15:04:08.934Z,5.40
2022-11-16T15:06:47.250Z,5.62
2022-11-16T15:09:29.538Z,6.87
2022-11-16T15:12:18.049Z,6.82
2022-11-16T15:14:54.652Z,6.93
2022-11-16T15:17:31.768Z,6.03
2022-11-16T15:20:15.359Z,8.20
2022-11-16T15:22:47.360Z,5.35
2022-11-16T15:25:27.824Z,4.93
2022-11-16T15:27:58.576Z,4.65
2022-11-16T15:30:35.267Z,4.50
2022-11-16T15:33:10.407Z,13.60
2022-11-16T15:35:39.173Z,14.85
2022-11-16T15:38:20.646Z,8.50
2022-11-16T15:40:54.357Z,8.93
2022-11-16T15:43:32.250Z,9.85
2022-11-16T15:46:06.191Z,9.18
2022-11-16T15:48:38.464Z,10.50
2022-11-16T15:51:17.662Z,7.47
2022-11-16T15:53:50.910Z,7.03
2022-11-16T15:56:18.633Z,7.40
2022-11-16T15:58:47.920Z,5.20
2022-11-16T16:01:16.895Z,7.93
2022-11-16T16:03:58.211Z,7.50
2022-11-16T16:07:05.183Z,9.13
2022-11-16T16:09:39.497Z,12.50
2022-11-16T16:12:22.111Z,9.15
2022-11-16T16:14:52.578Z,10.98
2022-11-16T16:17:30.890Z,10.05
2022-11-16T16:20:02.677Z,9.70
2022-11-16T16:25:02.788Z,12.40
2022-11-16T16:27:32.695Z,12.65
2022-11-16T16:30:05.772Z,16.87
2022-11-16T16:32:37.348Z,13.48
2022-11-16T16:35:08.156Z,14.02
2022-11-16T16:37:37.148Z,13.02
2022-11-16T16:40:05.638Z,10.65
2022-11-16T16:42:33.612Z,7.20
2022-11-16T16:45:02.753Z,9.88
2022-11-16T16:47:33.435Z,13.30
2022-11-16T16:50:01.814Z,12.50
2022-11-16T16:52:34.581Z,10.90
2022-11-16T16:55:02.889Z,12.23
2022-11-16T16:57:31.099Z,15.63
2022-11-16T16:59:59.137Z,10.95
2022-11-16T17:02:28.017Z,15.32
2022-11-16T17:04:55.847Z,10.77
2022-11-16T17:07:23.974Z,9.50
2022-11-16T17:09:55.105Z,9.18
2022-11-16T17:12:22.953Z,13.07
2022-11-16T17:14:53.691Z,15.95
2022-11-16T17:17:24.614Z,15.70
2022-11-16T17:19:53.211Z,16.77
2022-11-16T17:22:21.821Z,17.73
2022-11-16T17:24:49.697Z,10.23
2022-11-16T17:27:17.648Z,12.68
2022-11-16T17:29:45.798Z,14.30
2022-11-16T17:32:13.549Z,12.07
2022-11-16T17:34:41.765Z,9.57
2022-11-16T17:37:14.207Z,10.70
2022-11-16T17:39:45.395Z,12.50
2022-11-16T17:42:13.631Z,13.13
2022-11-16T17:44:44.299Z,10.07
2022-11-16T17:47:12.105Z,12.15
2022-11-16T17:49:40.401Z,9.60
2022-11-16T17:52:08.294Z,10.95
2022-11-16T17:54:36.039Z,11.55
2022-11-16T17:57:04.335Z,7.37
2022-11-16T17:59:32.350Z,7.00
2022-11-16T18:02:00.085Z,8.00
2022-11-16T18:04:28.336Z,10.48
2022-11-16T18:06:56.307Z,11.25
2022-11-16T18:09:24.445Z,8.57
2022-11-16T18:11:52.672Z,11.07
2022-11-16T18:14:20.419Z,11.15
2022-11-16T18:16:48.304Z,10.63
2022-11-16T18:19:18.395Z,10.38
2022-11-16T18:21:47.012Z,7.78
2022-11-16T18:24:14.888Z,5.47
2022-11-16T18:26:43.279Z,9.82
2022-11-16T18:29:15.692Z,7.82
2022-11-16T18:31:44.000Z,8.05
2022-11-16T18:34:14.499Z,9.05
2022-11-16T18:36:42.380Z,8.25
2022-11-16T18:39:13.422Z,7.70
2022-11-16T18:41:50.193Z,15.20
2022-11-16T18:44:23.193Z,6.55
2022-11-16T18:46:51.049Z,13.13
2022-11-16T18:49:19.106Z,12.93
2022-11-16T18:51:47.553Z,9.50
2022-11-16T18:54:15.404Z,6.62
2022-11-16T18:56:43.238Z,14.05
2022-11-16T18:59:11.609Z,13.27
2022-11-16T19:01:39.550Z,6.43
2022-11-16T19:04:09.106Z,18.40
2022-11-16T19:06:37.245Z,11.98
2022-11-16T19:09:06.580Z,19.98
2022-11-16T19:11:34.447Z,15.98
2022-11-16T19:14:05.489Z,14.87
2022-11-16T19:16:34.211Z,28.40
2022-11-16T19:19:02.480Z,19.58
2022-11-16T19:21:30.627Z,37.33
2022-11-16T19:23:58.558Z,23.67
2022-11-16T19:26:27.994Z,23.10
2022-11-16T19:28:56.132Z,16.60
2022-11-16T19:31:30.301Z,20.35
2022-11-16T19:34:04.710Z,44.83
2022-11-16T19:36:34.434Z,176.68
2022-11-16T19:39:02.814Z,322.83
2022-11-16T19:41:33.588Z,261.40
2022-11-16T19:44:04.595Z,177.38
2022-11-16T19:46:33.709Z,158.57
2022-11-16T19:49:04.518Z,125.75
2022-11-16T19:51:34.236Z,88.50
2022-11-16T19:54:02.902Z,70.40
2022-11-16T19:56:31.028Z,44.78
2022-11-16T19:58:59.180Z,48.42
2022-11-16T20:01:29.698Z,18.25
2022-11-16T20:03:59.819Z,15.57
2022-11-16T20:06:30.449Z,43.87
2022-11-16T20:09:08.858Z,51.03
2022-11-16T20:11:39.002Z,37.90
2022-11-16T20:14:09.992Z,26.00
2022-11-16T20:16:47.585Z,19.30
2022-11-16T20:19:20.793Z,20.88
2022-11-16T20:21:48.608Z,22.05
2022-11-16T20:24:18.419Z,14.90
2022-11-16T20:26:48.617Z,19.00
2022-11-16T20:29:19.112Z,25.85
2022-11-16T20:31:47.674Z,14.93
2022-11-16T20:34:17.133Z,29.60
2022-11-16T20:36:47.829Z,21.65
2022-11-16T20:39:19.807Z,22.65
2022-11-16T20:41:48.812Z,27.40
2022-11-16T20:44:27.223Z,23.33
2022-11-16T20:46:55.275Z,31.02
2022-11-16T20:49:23.097Z,18.08
2022-11-16T20:51:53.872Z,15.55
2022-11-16T20:54:24.651Z,22.20
2022-11-16T20:56:52.571Z,20.42
2022-11-16T20:59:20.410Z,18.33
2022-11-16T21:01:52.711Z,25.00
2022-11-16T21:04:21.021Z,19.77
2022-11-16T21:06:52.606Z,20.33
2022-11-16T21:09:24.161Z,24.87
2022-11-16T21:12:17.984Z,22.10
2022-11-16T21:14:57.624Z,27.62
2022-11-16T21:17:32.708Z,27.85
2022-11-16T21:20:25.879Z,25.37
2022-11-16T21:22:49.068Z,23.90
2022-11-16T21:25:17.427Z,20.95
2022-11-16T21:27:46.525Z,24.77
2022-11-16T21:30:15.019Z,26.65
2022-11-16T21:32:47.257Z,30.15
2022-11-16T21:35:18.705Z,27.08
2022-11-16T21:37:46.582Z,31.62
2022-11-16T21:40:14.700Z,35.42
2022-11-16T21:42:42.910Z,42.88
2022-11-16T21:45:11.218Z,34.53
2022-11-16T21:47:39.082Z,38.45
2022-11-16T21:53:00.537Z,27.95
2022-11-16T21:55:32.097Z,28.40
2022-11-16T21:58:06.028Z,24.12
2022-11-16T22:00:34.240Z,23.70
2022-11-16T22:03:02.536Z,27.00
2022-11-16T22:05:52.297Z,33.72
2022-11-16T22:08:20.434Z,33.03
2022-11-16T22:10:52.520Z,27.37
2022-11-16T22:13:20.831Z,24.42
2022-11-16T22:15:48.852Z,22.83
2022-11-16T22:18:16.804Z,24.58
2022-11-16T22:20:48.405Z,28.00
2022-11-16T22:23:22.963Z,30.20
2022-11-16T22:25:52.538Z,22.80
2022-11-16T22:28:21.630Z,28.70
2022-11-16T22:30:52.046Z,26.77
2022-11-16T22:33:20.867Z,31.08
2022-11-16T22:35:48.738Z,28.42
2022-11-16T22:38:16.659Z,29.08
2022-11-16T22:40:52.147Z,29.35
2022-11-16T22:43:22.004Z,35.05
2022-11-16T22:45:50.317Z,28.70
2022-11-16T22:48:18.358Z,28.12
2022-11-16T22:50:46.280Z,30.62
2022-11-16T22:53:15.183Z,25.60
2022-11-16T22:55:43.056Z,31.77
2022-11-16T22:58:10.887Z,24.65
2022-11-16T23:00:42.239Z,32.17
2022-11-16T23:03:10.732Z,29.90
2022-11-16T23:05:38.950Z,33.40
2022-11-16T23:08:06.874Z,30.17
2022-11-16T23:10:54.736Z,25.55
2022-11-16T23:13:41.399Z,27.33
2022-11-16T23:16:09.550Z,28.58
2022-11-16T23:18:41.031Z,22.02
2022-11-16T23:21:27.813Z,23.70
2022-11-16T23:24:14.815Z,23.92
2022-11-16T23:27:01.402Z,32.25
2022-11-16T23:29:29.708Z,29.65
2022-11-16T23:31:57.599Z,29.75
2022-11-16T23:34:25.557Z,32.45
2022-11-16T23:36:53.884Z,31.25
2022-11-16T23:39:21.837Z,35.30
2022-11-16T23:42:08.248Z,34.60
2022-11-16T23:44:36.580Z,31.58
2022-11-16T23:47:04.476Z,29.87
2022-11-16T23:49:32.464Z,34.55
2022-11-16T23:52:00.718Z,34.70
2022-11-16T23:54:28.539Z,30.33
2022-11-16T23:56:56.498Z,26.92
2022-11-16T23:59:24.773Z,31.90
